Time;durP1;ratioP1;P1;durP2;ratioP2;P2;SDS_P1;SDS_P2;PMS_P1;PMS_P2;Temp;Humidity;BMP_temperature;BMP_pressure;BME280_temperature;BME280_humidity;BME280_pressure;Samples;Min_cycle;Max_cycle;Signal;HPM_P1;HPM_P2
2021/05/31 00:01:05;;;;;;;9.13;5.25;;;14.60;74.40;;;;;;5014016;28;20084;-77
2021/05/31 00:03:31;;;;;;;8.32;5.03;;;14.50;74.60;;;;;;5013632;28;20031;-77
2021/05/31 00:05:56;;;;;;;8.85;5.07;;;14.50;74.70;;;;;;5030377;28;20118;-78
2021/05/31 00:08:22;;;;;;;7.55;4.78;;;14.50;74.80;;;;;;5013895;28;20063;-78
2021/05/31 00:10:48;;;;;;;8.60;5.18;;;14.50;74.90;;;;;;5048009;28;20025;-78
2021/05/31 00:13:16;;;;;;;9.63;5.13;;;14.50;75.20;;;;;;5047904;28;20487;-78
2021/05/31 00:15:42;;;;;;;6.28;4.38;;;14.40;75.40;;;;;;5047747;28;20029;-79
2021/05/31 00:18:08;;;;;;;6.97;4.22;;;14.40;75.60;;;;;;5048020;28;20111;-78
2021/05/31 00:20:34;;;;;;;7.85;4.75;;;14.30;75.70;;;;;;5030040;28;20037;-78
2021/05/31 00:23:00;;;;;;;7.97;4.60;;;14.30;75.90;;;;;;5047964;28;20021;-77
2021/05/31 00:25:25;;;;;;;5.50;4.72;;;14.30;76.20;;;;;;5047961;28;20036;-78
2021/05/31 00:27:51;;;;;;;7.63;5.45;;;14.20;76.40;;;;;;5029932;28;20387;-77
2021/05/31 00:30:21;;;;;;;7.03;5.28;;;14.20;76.70;;;;;;5013405;28;20120;-77
2021/05/31 00:32:47;;;;;;;8.02;5.07;;;14.20;77.10;;;;;;5013959;28;20036;-76
2021/05/31 00:35:14;;;;;;;7.43;5.05;;;14.10;77.40;;;;;;5013538;28;20606;-77
2021/05/31 00:37:40;;;;;;;10.27;6.32;;;14.20;77.50;;;;;;5029693;28;20033;-77
2021/05/31 00:40:08;;;;;;;8.77;4.80;;;14.20;77.50;;;;;;5029757;28;20440;-77
2021/05/31 00:42:33;;;;;;;5.93;4.80;;;14.20;77.70;;;;;;5029891;28;20037;-77
2021/05/31 00:44:59;;;;;;;6.68;4.75;;;14.10;77.80;;;;;;5013368;28;20471;-77
2021/05/31 00:47:25;;;;;;;6.03;4.72;;;14.00;78.00;;;;;;5013390;28;20037;-78
2021/05/31 00:49:51;;;;;;;4.95;4.18;;;14.00;78.20;;;;;;5029783;28;20086;-77
2021/05/31 00:52:16;;;;;;;7.78;4.95;;;14.00;78.30;;;;;;5013303;28;20034;-77
2021/05/31 00:54:43;;;;;;;8.50;5.32;;;14.00;78.60;;;;;;5029637;28;20029;-77
2021/05/31 00:57:09;;;;;;;7.05;5.55;;;13.90;78.90;;;;;;5013280;28;20025;-78
2021/05/31 00:59:35;;;;;;;9.05;5.95;;;13.90;79.10;;;;;;5047332;28;20036;-78
2021/05/31 01:02:01;;;;;;;7.38;5.03;;;13.90;79.30;;;;;;5029699;28;20403;-77
2021/05/31 01:04:27;;;;;;;7.85;4.82;;;13.80;79.50;;;;;;5013126;28;20028;-77
2021/05/31 01:07:40;;;;;;;7.60;5.15;;;13.80;79.60;;;;;;5029572;28;20033;-78
2021/05/31 01:10:25;;;;;;;7.28;4.40;;;13.80;79.60;;;;;;4930831;29;20082;-76
2021/05/31 01:13:12;;;;;;;8.90;5.00;;;13.80;79.50;;;;;;4931378;29;20450;-78
2021/05/31 01:15:50;;;;;;;10.25;5.68;;;13.80;79.80;;;;;;5010273;28;20483;-77
2021/05/31 01:18:44;;;;;;;11.45;5.70;;;13.70;80.10;;;;;;5051490;28;20031;-79
2021/05/31 01:21:22;;;;;;;6.38;5.50;;;13.70;80.30;;;;;;5029964;28;20052;-78
2021/05/31 01:23:50;;;;;;;6.18;4.57;;;13.70;80.40;;;;;;5033373;28;20108;-78
2021/05/31 01:26:24;;;;;;;9.90;5.50;;;13.70;80.30;;;;;;5033350;28;20132;-78
2021/05/31 01:28:58;;;;;;;9.15;5.47;;;13.60;80.60;;;;;;5016647;28;20025;-79
2021/05/31 01:31:41;;;;;;;7.07;6.18;;;13.60;80.70;;;;;;5033172;28;20043;-77
2021/05/31 01:34:09;;;;;;;12.93;5.55;;;13.60;80.90;;;;;;5033128;28;20236;-79
2021/05/31 01:36:48;;;;;;;7.75;5.82;;;13.60;80.90;;;;;;5032937;28;20050;-78
2021/05/31 01:39:20;;;;;;;6.88;4.68;;;13.60;81.20;;;;;;5051231;28;20017;-77
2021/05/31 01:41:46;;;;;;;9.00;5.07;;;13.60;81.20;;;;;;5032927;28;20043;-78
2021/05/31 01:44:17;;;;;;;6.60;5.13;;;13.60;81.30;;;;;;5016724;28;20558;-79
2021/05/31 01:46:43;;;;;;;7.32;4.72;;;13.50;81.50;;;;;;5033211;28;20033;-77
2021/05/31 01:49:11;;;;;;;7.93;5.60;;;13.50;81.60;;;;;;5032664;28;20047;-78
2021/05/31 01:51:38;;;;;;;10.30;5.00;;;13.50;81.90;;;;;;5032928;28;20033;-77
2021/05/31 01:54:07;;;;;;;5.25;3.83;;;13.50;82.10;;;;;;5050759;28;20052;-77
2021/05/31 01:56:34;;;;;;;4.95;4.10;;;13.50;82.20;;;;;;5032738;28;20053;-79
2021/05/31 01:59:00;;;;;;;6.72;4.25;;;13.50;82.10;;;;;;5050246;28;20032;-77
2021/05/31 02:01:26;;;;;;;7.90;4.38;;;13.50;82.10;;;;;;5050878;28;20024;-77
2021/05/31 02:03:52;;;;;;;7.68;4.72;;;13.40;82.20;;;;;;5016190;28;20091;-78
2021/05/31 02:06:18;;;;;;;11.23;5.45;;;13.40;82.50;;;;;;5016013;28;20029;-77
2021/05/31 02:08:44;;;;;;;7.82;5.10;;;13.40;82.80;;;;;;5032548;28;20037;-77
2021/05/31 02:11:28;;;;;;;9.13;4.88;;;13.40;83.10;;;;;;5032694;28;20498;-77
2021/05/31 02:14:00;;;;;;;9.75;5.32;;;13.40;83.30;;;;;;5032498;28;20053;-77
2021/05/31 02:16:41;;;;;;;5.55;4.70;;;13.40;83.30;;;;;;5050332;28;20390;-77
2021/05/31 02:19:10;;;;;;;8.65;5.53;;;13.30;83.70;;;;;;5050078;28;20023;-78
2021/05/31 02:21:38;;;;;;;10.77;5.03;;;13.30;83.70;;;;;;5032362;28;20029;-79
2021/05/31 02:24:05;;;;;;;5.80;4.85;;;13.30;83.80;;;;;;5050060;28;20028;-78
2021/05/31 02:26:32;;;;;;;7.50;4.80;;;13.20;83.90;;;;;;5015424;28;20021;-77
2021/05/31 02:28:58;;;;;;;6.97;5.22;;;13.20;84.20;;;;;;5048845;28;20116;-77
2021/05/31 02:31:24;;;;;;;7.22;5.65;;;13.20;84.40;;;;;;5032074;28;20033;-78
2021/05/31 02:33:50;;;;;;;6.22;5.13;;;13.20;84.50;;;;;;5015541;28;20029;-78
2021/05/31 02:36:17;;;;;;;8.98;5.88;;;13.20;84.50;;;;;;5031982;28;20502;-77
2021/05/31 02:38:43;;;;;;;7.43;5.18;;;13.10;84.80;;;;;;5031978;28;20514;-78
2021/05/31 02:41:10;;;;;;;9.45;5.28;;;13.10;85.10;;;;;;5031844;28;20033;-79
2021/05/31 02:43:35;;;;;;;7.55;5.43;;;13.10;85.10;;;;;;5031835;28;20025;-78
2021/05/31 02:46:01;;;;;;;7.13;5.30;;;13.10;85.30;;;;;;5015518;28;20032;-77
2021/05/31 02:48:28;;;;;;;7.80;4.40;;;13.10;85.30;;;;;;5015240;28;20490;-77
2021/05/31 02:50:56;;;;;;;7.90;4.78;;;13.10;85.40;;;;;;5031661;28;20025;-78
2021/05/31 02:53:23;;;;;;;7.63;4.72;;;13.10;85.50;;;;;;5031691;28;20056;-78
2021/05/31 02:55:49;;;;;;;9.10;5.53;;;13.10;85.50;;;;;;5031359;28;20557;-78
2021/05/31 02:58:15;;;;;;;7.25;5.03;;;13.00;85.50;;;;;;5031661;28;20037;-78
2021/05/31 03:00:40;;;;;;;8.55;5.22;;;13.10;85.60;;;;;;5015207;28;20531;-78
2021/05/31 03:03:07;;;;;;;7.70;5.72;;;13.00;85.70;;;;;;5031753;28;20112;-77
2021/05/31 03:05:33;;;;;;;12.02;6.50;;;13.00;85.90;;;;;;5049332;28;20021;-78
2021/05/31 03:07:59;;;;;;;8.00;6.63;;;13.10;86.30;;;;;;5015040;28;20035;-77
2021/05/31 03:10:26;;;;;;;7.63;6.05;;;13.10;86.30;;;;;;5031213;28;20119;-78
2021/05/31 03:12:52;;;;;;;8.52;5.88;;;13.10;86.30;;;;;;5031229;28;20032;-77
2021/05/31 03:15:19;;;;;;;9.05;6.28;;;13.10;86.60;;;;;;5015101;28;20091;-78
2021/05/31 03:17:45;;;;;;;6.90;5.32;;;13.00;86.70;;;;;;5014841;28;20039;-79
2021/05/31 03:20:12;;;;;;;9.70;6.53;;;13.00;86.80;;;;;;5014675;28;20025;-79
2021/05/31 03:22:38;;;;;;;8.68;5.72;;;13.00;86.90;;;;;;5014815;28;20407;-78
2021/05/31 03:25:05;;;;;;;7.30;5.65;;;13.00;87.00;;;;;;5048927;28;20013;-78
2021/05/31 03:27:31;;;;;;;7.82;5.50;;;12.90;87.10;;;;;;5030936;28;20511;-78
2021/05/31 03:29:57;;;;;;;7.93;6.20;;;12.90;87.20;;;;;;5048739;28;20544;-79
2021/05/31 03:32:22;;;;;;;10.15;5.65;;;12.90;87.50;;;;;;5030975;28;20475;-79
2021/05/31 03:34:48;;;;;;;7.13;5.45;;;12.80;88.00;;;;;;5048861;28;20017;-77
2021/05/31 03:37:14;;;;;;;7.30;5.60;;;12.80;87.60;;;;;;5014247;28;20196;-77
2021/05/31 03:39:39;;;;;;;8.68;7.10;;;12.80;87.70;;;;;;5013837;28;20025;-78
2021/05/31 03:42:07;;;;;;;7.75;5.30;;;12.80;87.80;;;;;;5030980;28;20471;-78
2021/05/31 03:44:33;;;;;;;8.10;5.85;;;12.80;87.80;;;;;;5048803;28;20017;-77
2021/05/31 03:46:59;;;;;;;7.38;5.32;;;12.80;87.90;;;;;;5014428;28;20170;-78
2021/05/31 03:49:25;;;;;;;6.15;5.03;;;12.70;88.00;;;;;;5014138;28;20102;-77
2021/05/31 03:51:50;;;;;;;7.28;5.72;;;12.70;88.00;;;;;;5030878;28;20059;-77
2021/05/31 03:54:16;;;;;;;9.45;5.40;;;12.70;88.10;;;;;;5014331;28;20083;-78
2021/05/31 03:56:42;;;;;;;6.53;5.55;;;12.60;88.10;;;;;;5013889;28;20037;-78
2021/05/31 03:59:08;;;;;;;10.10;6.05;;;12.60;88.30;;;;;;5014002;28;20025;-78
2021/05/31 04:01:34;;;;;;;6.85;5.55;;;12.60;88.50;;;;;;5030499;28;20128;-78
2021/05/31 04:04:00;;;;;;;8.10;5.55;;;12.60;88.60;;;;;;5013910;28;20036;-78
2021/05/31 04:11:37;;;;;;;7.75;6.30;;;12.50;88.70;;;;;;5048380;28;20493;-78
2021/05/31 04:14:02;;;;;;;11.20;5.45;;;12.40;88.70;;;;;;5030217;28;20037;-78
2021/05/31 04:16:28;;;;;;;7.88;5.68;;;12.40;88.80;;;;;;5030185;28;20028;-78
2021/05/31 04:18:54;;;;;;;8.90;5.97;;;12.40;89.10;;;;;;5013336;28;20025;-77
2021/05/31 04:21:21;;;;;;;8.02;5.65;;;12.40;89.30;;;;;;5013535;28;20147;-78
2021/05/31 04:23:47;;;;;;;9.00;6.03;;;12.40;89.50;;;;;;5013402;28;20056;-79
2021/05/31 04:26:13;;;;;;;7.90;5.30;;;12.40;89.40;;;;;;5047718;28;20063;-77
2021/05/31 04:28:38;;;;;;;11.43;6.18;;;12.30;89.50;;;;;;5029986;28;20032;-78
2021/05/31 04:31:04;;;;;;;8.93;6.22;;;12.30;89.70;;;;;;5013531;28;20029;-78
2021/05/31 04:33:30;;;;;;;11.48;5.97;;;12.30;90.00;;;;;;5047541;28;20456;-78
2021/05/31 04:35:56;;;;;;;10.60;6.75;;;12.30;90.00;;;;;;5013075;28;20059;-78
2021/05/31 04:38:21;;;;;;;11.90;6.53;;;12.40;90.00;;;;;;5013354;28;20497;-79
2021/05/31 04:40:47;;;;;;;9.77;6.13;;;12.40;90.00;;;;;;5013160;28;20502;-78
2021/05/31 04:43:13;;;;;;;17.35;6.43;;;12.50;90.10;;;;;;5013321;28;20029;-78
2021/05/31 04:45:39;;;;;;;6.45;5.18;;;12.50;90.10;;;;;;5029847;28;20033;-79
2021/05/31 04:48:05;;;;;;;6.32;4.60;;;12.50;90.10;;;;;;5047730;28;20037;-77
2021/05/31 04:50:30;;;;;;;8.15;5.55;;;12.50;90.10;;;;;;5030127;28;20070;-79
2021/05/31 04:52:56;;;;;;;8.18;5.55;;;12.50;90.20;;;;;;5034181;28;20029;-79
2021/05/31 04:55:22;;;;;;;12.45;6.45;;;12.50;90.30;;;;;;5013966;28;20076;-78
2021/05/31 04:57:48;;;;;;;8.70;5.63;;;12.50;90.30;;;;;;5014065;28;20037;-78
2021/05/31 05:00:15;;;;;;;8.20;6.45;;;12.50;90.30;;;;;;5030723;28;20034;-78
2021/05/31 05:02:41;;;;;;;6.88;5.72;;;12.50;90.40;;;;;;5030527;28;20064;-78
2021/05/31 05:05:08;;;;;;;9.77;5.90;;;12.50;90.40;;;;;;5013696;28;20052;-79
2021/05/31 05:07:33;;;;;;;8.93;6.38;;;12.60;90.50;;;;;;5030270;28;20407;-77
2021/05/31 05:09:59;;;;;;;9.68;6.07;;;12.60;90.50;;;;;;5030111;28;20037;-78
2021/05/31 05:12:25;;;;;;;8.50;6.20;;;12.60;90.60;;;;;;5013757;28;20483;-79
2021/05/31 05:14:50;;;;;;;7.00;5.25;;;12.60;90.70;;;;;;5013705;28;20078;-78
2021/05/31 05:17:16;;;;;;;11.07;6.72;;;12.60;90.80;;;;;;5013556;28;20476;-77
2021/05/31 05:19:42;;;;;;;8.18;6.32;;;12.50;90.80;;;;;;5029846;28;20034;-78
2021/05/31 05:22:08;;;;;;;9.63;6.65;;;12.60;90.90;;;;;;5029868;28;20029;-78
2021/05/31 05:24:34;;;;;;;12.27;7.05;;;12.60;91.00;;;;;;5013416;28;20033;-78
2021/05/31 05:27:05;;;;;;;9.90;6.28;;;12.60;91.20;;;;;;5031353;28;20025;-78
2021/05/31 05:29:31;;;;;;;7.47;5.78;;;12.70;91.20;;;;;;5031247;28;20033;-79
2021/05/31 05:31:58;;;;;;;12.32;5.85;;;12.70;91.10;;;;;;5029980;28;20037;-79
2021/05/31 05:34:24;;;;;;;9.52;6.30;;;12.80;91.10;;;;;;5029710;28;20444;-78
2021/05/31 05:36:53;;;;;;;8.55;6.32;;;12.90;91.10;;;;;;5013146;28;20033;-78
2021/05/31 05:49:45;;;;;;;12.32;6.50;;;13.60;91.00;;;;;;5029717;28;20041;-78
2021/05/31 05:52:11;;;;;;;;;;;13.70;90.80;;;;;;5014090;28;20083;-78
2021/05/31 05:54:37;;;;;;;9.43;8.27;;;13.90;90.80;;;;;;5031032;28;20412;-79
2021/05/31 05:57:03;;;;;;;12.82;7.93;;;14.30;91.30;;;;;;5032357;28;20070;-78
2021/05/31 05:59:29;;;;;;;8.82;6.95;;;15.60;91.40;;;;;;5050010;28;20557;-79
2021/05/31 06:01:55;;;;;;;14.45;8.93;;;17.40;89.50;;;;;;5031983;28;20116;-78
2021/05/31 06:04:21;;;;;;;18.38;9.15;;;19.20;84.50;;;;;;5015740;28;20031;-78
2021/05/31 06:06:47;;;;;;;10.43;8.68;;;20.50;79.70;;;;;;5015622;28;20033;-78
2021/05/31 06:09:15;;;;;;;11.55;8.60;;;21.80;76.10;;;;;;5032074;28;20050;-80
2021/05/31 06:11:41;;;;;;;11.45;9.35;;;23.10;72.40;;;;;;5032180;28;20434;-79
2021/05/31 06:14:09;;;;;;;22.55;9.13;;;24.00;69.40;;;;;;5032024;28;20486;-78
2021/05/31 06:16:35;;;;;;;10.25;6.97;;;24.60;67.40;;;;;;5031753;28;20037;-79
2021/05/31 06:19:02;;;;;;;9.43;8.07;;;25.40;65.80;;;;;;5031549;28;20487;-79
2021/05/31 06:21:27;;;;;;;10.95;9.07;;;26.30;64.00;;;;;;5031878;28;20467;-80
2021/05/31 06:23:54;;;;;;;14.00;9.45;;;27.10;61.80;;;;;;5049876;28;20035;-80
2021/05/31 06:26:20;;;;;;;10.13;8.68;;;27.60;60.10;;;;;;5031833;28;20372;-80
2021/05/31 06:28:46;;;;;;;16.73;8.52;;;28.10;58.70;;;;;;5015090;28;20029;-80
2021/05/31 06:31:12;;;;;;;13.70;8.90;;;28.70;57.40;;;;;;5031855;28;20032;-79
2021/05/31 06:33:37;;;;;;;13.63;9.02;;;29.40;56.00;;;;;;5015100;28;20033;-79
2021/05/31 06:36:07;;;;;;;14.82;9.23;;;29.70;54.50;;;;;;5014915;28;20039;-78
2021/05/31 06:38:33;;;;;;;14.40;8.30;;;30.00;53.60;;;;;;5015498;28;20431;-80
2021/05/31 06:40:59;;;;;;;10.45;8.25;;;30.30;52.60;;;;;;5031522;28;20129;-80
2021/05/31 06:43:25;;;;;;;11.95;8.02;;;30.70;51.70;;;;;;5031587;28;20036;-79
2021/05/31 06:45:51;;;;;;;12.43;7.38;;;30.90;50.70;;;;;;5014856;28;20025;-80
2021/05/31 06:48:16;;;;;;;9.65;6.70;;;30.90;50.50;;;;;;5015210;28;20116;-78
2021/05/31 06:50:46;;;;;;;18.33;7.07;;;31.20;50.10;;;;;;5030973;28;20029;-79
2021/05/31 06:53:12;;;;;;;11.07;6.15;;;32.00;49.30;;;;;;5031829;28;20487;-79
2021/05/31 06:55:38;;;;;;;12.32;5.65;;;32.70;48.60;;;;;;5048728;28;20053;-80
2021/05/31 06:58:04;;;;;;;9.25;5.43;;;33.30;47.60;;;;;;5030937;28;20025;-79
2021/05/31 07:00:30;;;;;;;11.68;4.50;;;33.90;46.40;;;;;;5014491;28;20037;-79
2021/05/31 07:02:56;;;;;;;8.02;4.22;;;34.40;45.50;;;;;;5048949;28;20017;-81
2021/05/31 07:05:23;;;;;;;6.57;4.10;;;34.90;44.50;;;;;;5030947;28;20028;-80
2021/05/31 07:07:50;;;;;;;6.40;3.97;;;35.20;43.60;;;;;;5014690;28;20407;-79
2021/05/31 07:10:17;;;;;;;10.25;4.00;;;35.00;43.10;;;;;;5048717;28;20025;-79
2021/05/31 07:12:44;;;;;;;7.65;3.80;;;34.60;42.90;;;;;;5048491;28;20066;-79
2021/05/31 07:15:12;;;;;;;5.13;3.70;;;34.00;42.70;;;;;;5030354;28;20102;-79
2021/05/31 07:17:39;;;;;;;8.50;3.88;;;33.10;42.60;;;;;;5048625;28;20035;-79
2021/05/31 07:20:11;;;;;;;6.43;3.22;;;32.20;43.10;;;;;;5014667;28;20029;-79
2021/05/31 07:22:37;;;;;;;9.13;4.38;;;31.50;43.50;;;;;;5030527;28;20024;-79
2021/05/31 07:25:07;;;;;;;9.45;4.90;;;31.10;44.10;;;;;;5014124;28;20033;-80
2021/05/31 07:27:33;;;;;;;8.18;5.03;;;30.50;44.40;;;;;;5014411;28;20025;-79
2021/05/31 07:29:58;;;;;;;7.13;4.90;;;30.00;44.80;;;;;;5030133;28;20036;-80
2021/05/31 07:32:24;;;;;;;9.00;4.40;;;29.90;45.00;;;;;;5031609;28;20102;-79
2021/05/31 07:34:50;;;;;;;10.27;4.38;;;29.80;45.00;;;;;;5030794;28;20036;-79
2021/05/31 07:37:17;;;;;;;5.50;3.33;;;29.60;44.70;;;;;;5030453;28;20040;-79
2021/05/31 07:39:42;;;;;;;4.15;3.00;;;29.60;44.30;;;;;;5048232;28;20474;-80
2021/05/31 07:42:09;;;;;;;7.57;3.40;;;29.80;44.10;;;;;;5013898;28;20443;-80
2021/05/31 07:44:35;;;;;;;4.15;3.50;;;30.30;44.00;;;;;;5030114;28;20031;-78
2021/05/31 07:47:01;;;;;;;7.82;3.47;;;31.00;44.00;;;;;;5030289;28;20033;-79
2021/05/31 07:49:27;;;;;;;7.90;3.92;;;31.90;43.70;;;;;;5047956;28;20025;-79
2021/05/31 07:51:54;;;;;;;8.68;4.20;;;32.70;43.20;;;;;;5029914;28;20083;-79
2021/05/31 07:54:23;;;;;;;8.40;3.85;;;33.50;42.40;;;;;;5029569;28;20029;-81
2021/05/31 07:56:49;;;;;;;6.18;3.72;;;34.10;41.90;;;;;;5046929;28;20045;-79
2021/05/31 07:59:15;;;;;;;6.18;3.40;;;34.50;41.70;;;;;;5029535;28;20071;-79
2021/05/31 08:01:40;;;;;;;6.90;4.13;;;34.90;41.20;;;;;;5029830;28;20539;-78
2021/05/31 08:04:06;;;;;;;7.05;3.75;;;35.20;40.90;;;;;;5030274;28;20036;-80
2021/05/31 08:06:36;;;;;;;5.97;4.15;;;35.20;40.70;;;;;;5047347;28;20025;-79
2021/05/31 08:09:05;;;;;;;8.00;4.10;;;35.10;40.60;;;;;;5029844;28;20102;-79
2021/05/31 08:11:31;;;;;;;9.80;4.82;;;35.00;40.60;;;;;;5047244;28;20114;-79
2021/05/31 08:13:56;;;;;;;9.27;3.88;;;34.70;40.40;;;;;;5012797;28;20033;-78
2021/05/31 08:16:22;;;;;;;6.38;3.83;;;34.20;40.80;;;;;;5048315;28;20033;-79
2021/05/31 08:18:48;;;;;;;9.55;3.50;;;34.00;41.10;;;;;;5031293;28;20110;-81
2021/05/31 08:21:14;;;;;;;5.60;3.63;;;34.10;41.60;;;;;;5049767;28;20048;-78
2021/05/31 08:23:40;;;;;;;10.23;3.85;;;34.40;41.50;;;;;;5050092;28;20035;-79
2021/05/31 08:26:05;;;;;;;5.53;3.20;;;34.80;41.20;;;;;;5032271;28;20025;-79
2021/05/31 08:28:31;;;;;;;5.70;3.50;;;35.40;41.20;;;;;;5032239;28;20044;-80
2021/05/31 08:30:59;;;;;;;9.98;3.80;;;36.10;41.00;;;;;;5050394;28;20029;-78
2021/05/31 08:33:24;;;;;;;7.35;3.58;;;36.60;40.60;;;;;;5049198;28;20091;-79
2021/05/31 08:35:50;;;;;;;6.95;3.45;;;37.00;40.20;;;;;;5014213;28;20103;-79
2021/05/31 08:38:16;;;;;;;5.10;3.00;;;37.00;39.80;;;;;;5031334;28;20029;-80
2021/05/31 08:40:42;;;;;;;4.50;2.92;;;36.70;39.50;;;;;;5049221;28;20078;-79
2021/05/31 08:43:08;;;;;;;3.72;3.13;;;36.70;39.60;;;;;;5031891;28;20017;-77
2021/05/31 08:45:37;;;;;;;11.00;2.85;;;36.60;39.40;;;;;;5031370;28;20050;-79
2021/05/31 08:48:03;;;;;;;5.15;2.30;;;36.60;38.90;;;;;;5032677;28;20138;-79
2021/05/31 08:50:33;;;;;;;7.72;2.95;;;36.50;39.20;;;;;;5048697;28;20032;-79
2021/05/31 08:52:59;;;;;;;7.65;2.67;;;36.90;38.90;;;;;;5014729;28;20078;-79
2021/05/31 08:55:28;;;;;;;4.75;2.55;;;37.20;38.60;;;;;;5049189;28;20124;-80
2021/05/31 08:57:55;;;;;;;4.65;2.58;;;37.20;38.70;;;;;;5031045;28;20459;-78
2021/05/31 09:00:27;;;;;;;4.20;2.40;;;37.40;38.90;;;;;;5048427;28;20040;-80
2021/05/31 09:02:57;;;;;;;6.32;2.60;;;37.50;38.20;;;;;;5049237;28;20021;-79
2021/05/31 09:05:30;;;;;;;3.90;2.17;;;37.90;38.10;;;;;;5032101;28;20032;-79
2021/05/31 09:08:00;;;;;;;13.45;2.88;;;38.30;37.40;;;;;;5015346;28;20025;-78
2021/05/31 09:10:26;;;;;;;6.22;2.80;;;38.80;37.60;;;;;;5032007;28;20037;-78
2021/05/31 09:12:51;;;;;;;3.28;1.90;;;39.20;37.00;;;;;;5049409;28;20039;-78
2021/05/31 09:15:32;;;;;;;5.30;2.13;;;39.50;36.70;;;;;;5031460;28;20029;-80
2021/05/31 09:17:57;;;;;;;9.20;2.50;;;39.50;35.90;;;;;;5051720;28;20104;-80
2021/05/31 09:20:24;;;;;;;3.53;2.63;;;39.30;35.80;;;;;;5052146;28;20059;-79
2021/05/31 09:22:54;;;;;;;3.22;2.25;;;39.00;35.60;;;;;;5034482;28;20353;-81
2021/05/31 09:25:24;;;;;;;5.15;2.80;;;39.10;35.70;;;;;;5052391;28;20081;-79
2021/05/31 09:27:51;;;;;;;3.03;2.22;;;39.30;35.50;;;;;;5034645;28;20112;-79
2021/05/31 09:30:17;;;;;;;6.47;2.40;;;39.70;35.60;;;;;;5052191;28;20059;-79
2021/05/31 09:32:52;;;;;;;2.65;2.40;;;39.90;35.60;;;;;;5050278;28;20044;-79
2021/05/31 09:35:23;;;;;;;2.28;1.80;;;39.60;34.70;;;;;;5030812;28;20052;-79
2021/05/31 09:37:50;;;;;;;5.75;2.58;;;38.20;34.70;;;;;;5050917;28;20079;-78
2021/05/31 09:40:23;;;;;;;3.50;2.70;;;36.80;35.20;;;;;;5053115;28;20344;-79
2021/05/31 09:42:57;;;;;;;14.32;4.38;;;35.20;35.50;;;;;;5053196;28;20025;-79
2021/05/31 09:45:23;;;;;;;4.30;1.98;;;33.80;35.80;;;;;;5035075;28;20034;-79
2021/05/31 09:47:50;;;;;;;3.20;2.10;;;32.70;36.10;;;;;;5038868;28;20463;-78
2021/05/31 09:50:32;;;;;;;3.70;2.25;;;32.10;37.00;;;;;;5035616;28;20054;-80
2021/05/31 09:53:10;;;;;;;4.30;1.95;;;32.30;37.60;;;;;;5034652;28;20020;-79
2021/05/31 09:55:38;;;;;;;4.18;1.98;;;32.30;37.20;;;;;;5034365;28;20052;-80
2021/05/31 09:58:12;;;;;;;11.40;2.73;;;32.10;37.50;;;;;;5052435;28;20032;-78
2021/05/31 10:00:39;;;;;;;2.78;2.25;;;32.20;37.50;;;;;;5034410;28;20124;-79
2021/05/31 10:03:44;;;;;;;5.55;2.78;;;32.20;37.20;;;;;;5033726;28;20402;-80
2021/05/31 10:11:04;;;;;;;5.20;1.98;;;32.70;38.30;;;;;;5036173;28;20044;-80
2021/05/31 10:13:31;;;;;;;4.63;2.28;;;33.60;38.40;;;;;;5052207;28;20116;-80
2021/05/31 10:16:00;;;;;;;3.85;2.70;;;34.40;37.50;;;;;;5051817;28;20114;-78
2021/05/31 10:18:28;;;;;;;4.40;2.35;;;35.20;37.20;;;;;;5033931;28;20114;-79
2021/05/31 10:20:55;;;;;;;3.97;2.45;;;35.90;36.80;;;;;;5032891;28;20021;-79
2021/05/31 10:23:21;;;;;;;5.95;2.25;;;36.30;36.30;;;;;;5051950;28;20028;-80
2021/05/31 10:25:58;;;;;;;8.55;2.35;;;36.70;36.00;;;;;;5016814;28;20483;-79
2021/05/31 10:28:29;;;;;;;5.10;2.05;;;37.10;36.10;;;;;;5034053;28;20013;-79
2021/05/31 10:31:06;;;;;;;3.55;2.83;;;37.40;35.80;;;;;;5051998;28;20021;-80
2021/05/31 10:33:37;;;;;;;6.25;2.30;;;37.30;35.40;;;;;;5034110;28;20363;-81
2021/05/31 10:36:17;;;;;;;5.18;2.85;;;37.20;35.50;;;;;;5033692;28;20017;-80
2021/05/31 10:38:48;;;;;;;3.47;1.95;;;36.90;35.10;;;;;;5051838;28;20041;-80
2021/05/31 10:41:20;;;;;;;4.13;2.03;;;36.40;35.20;;;;;;5017495;28;20067;-80
2021/05/31 10:43:54;;;;;;;3.25;2.25;;;36.30;35.50;;;;;;5033137;28;20491;-79
2021/05/31 10:46:26;;;;;;;14.27;2.55;;;36.10;35.40;;;;;;5032786;28;20125;-79
2021/05/31 10:48:53;;;;;;;3.70;2.05;;;36.30;35.80;;;;;;5050054;28;20025;-79
2021/05/31 10:51:20;;;;;;;9.00;2.72;;;36.50;35.30;;;;;;5033356;28;20063;-80
2021/05/31 10:53:46;;;;;;;4.13;2.28;;;36.80;35.30;;;;;;5051836;28;20421;-76
2021/05/31 10:56:18;;;;;;;5.70;3.70;;;36.90;35.10;;;;;;5015906;28;20053;-79
2021/05/31 10:58:49;;;;;;;11.07;7.72;;;36.80;35.10;;;;;;5033561;28;20056;-79
2021/05/31 11:01:20;;;;;;;6.90;3.15;;;36.20;35.20;;;;;;5024943;28;20448;-77
2021/05/31 11:03:51;;;;;;;4.90;2.28;;;35.60;35.20;;;;;;5050879;28;20067;-77
2021/05/31 11:06:22;;;;;;;3.05;2.10;;;34.70;35.20;;;;;;5051219;28;20469;-78
2021/05/31 11:08:53;;;;;;;2.58;1.90;;;34.30;36.10;;;;;;5050818;28;20037;-78
2021/05/31 11:11:31;;;;;;;3.70;2.40;;;34.70;36.60;;;;;;5033120;28;20025;-77
2021/05/31 11:13:58;;;;;;;3.75;1.92;;;35.70;36.60;;;;;;5050905;28;20060;-79
2021/05/31 11:16:25;;;;;;;6.95;2.20;;;36.40;36.60;;;;;;5031939;28;20029;-81
2021/05/31 11:18:58;;;;;;;5.20;2.03;;;36.40;35.90;;;;;;5050040;28;20038;-79
2021/05/31 11:21:37;;;;;;;4.60;2.40;;;35.90;35.80;;;;;;5050159;28;20021;-80
2021/05/31 11:24:08;;;;;;;4.47;2.58;;;35.70;36.80;;;;;;5050354;28;20046;-80
2021/05/31 11:26:40;;;;;;;3.53;2.08;;;36.00;36.30;;;;;;5050316;28;20119;-79
2021/05/31 11:29:07;;;;;;;4.80;2.25;;;36.30;36.00;;;;;;5031588;28;20032;-76
2021/05/31 11:31:34;;;;;;;6.47;2.13;;;36.90;36.00;;;;;;5050362;28;20032;-79
2021/05/31 11:34:02;;;;;;;5.32;2.15;;;36.50;35.30;;;;;;5032307;28;20029;-79
2021/05/31 11:36:30;;;;;;;6.97;2.60;;;35.40;35.30;;;;;;5033048;28;20110;-79
2021/05/31 11:38:56;;;;;;;4.07;2.40;;;34.40;36.00;;;;;;5050769;28;20025;-78
2021/05/31 11:41:43;;;;;;;6.38;2.97;;;34.10;36.70;;;;;;5050493;28;20021;-79
2021/05/31 11:44:30;;;;;;;4.22;2.45;;;34.70;37.10;;;;;;5029540;28;20034;-79
2021/05/31 11:46:58;;;;;;;6.93;3.55;;;35.50;36.80;;;;;;5029665;28;20026;-80
2021/05/31 11:49:25;;;;;;;3.67;2.20;;;36.10;36.50;;;;;;5033030;28;20102;-79
2021/05/31 11:52:03;;;;;;;6.45;2.55;;;36.60;36.50;;;;;;5049879;28;20128;-80
2021/05/31 11:54:33;;;;;;;3.95;2.00;;;37.00;36.30;;;;;;5050208;28;20021;-80
2021/05/31 11:57:06;;;;;;;;;;;37.20;36.40;;;;;;5032860;28;20159;-78
2021/05/31 11:59:33;;;;;;;4.65;3.25;;;37.60;36.70;;;;;;5031050;28;19905;-79
2021/05/31 12:01:59;;;;;;;4.95;2.35;;;37.60;36.10;;;;;;5049940;28;20094;-79
2021/05/31 12:04:26;;;;;;;5.05;2.97;;;37.80;36.10;;;;;;5032065;28;20355;-78
2021/05/31 12:07:06;;;;;;;6.88;2.70;;;38.00;35.80;;;;;;5031992;28;20020;-77
2021/05/31 12:09:35;;;;;;;3.03;2.30;;;38.10;35.70;;;;;;5031827;28;20032;-78
2021/05/31 12:12:01;;;;;;;5.80;2.90;;;37.50;35.40;;;;;;5049527;28;20336;-77
2021/05/31 12:14:29;;;;;;;5.70;2.80;;;36.40;35.40;;;;;;5048213;28;20040;-79
2021/05/31 12:17:00;;;;;;;5.68;2.72;;;35.40;36.00;;;;;;5014089;28;20032;-78
2021/05/31 12:19:28;;;;;;;5.13;2.90;;;34.80;36.50;;;;;;5030269;28;20071;-78
2021/05/31 12:21:58;;;;;;;4.10;2.75;;;34.60;36.90;;;;;;5047691;28;20471;-80
2021/05/31 12:24:26;;;;;;;6.30;3.33;;;34.50;36.80;;;;;;5032146;28;20021;-79
2021/05/31 12:26:53;;;;;;;5.22;2.90;;;34.20;37.10;;;;;;5014113;28;20029;-79
2021/05/31 12:29:19;;;;;;;4.90;2.10;;;34.40;37.10;;;;;;5049054;28;20033;-79
2021/05/31 12:31:48;;;;;;;3.20;2.10;;;34.60;37.10;;;;;;5031486;28;20131;-79
2021/05/31 12:34:25;;;;;;;5.40;2.58;;;34.60;36.70;;;;;;5031075;28;20094;-78
2021/05/31 12:36:54;;;;;;;3.40;2.28;;;34.60;36.50;;;;;;5030951;28;20147;-80
2021/05/31 12:39:21;;;;;;;3.78;2.85;;;34.30;36.60;;;;;;5028478;28;20094;-82
2021/05/31 12:41:48;;;;;;;5.88;2.58;;;33.60;36.90;;;;;;5050084;28;20021;-78
2021/05/31 12:44:14;;;;;;;4.93;2.33;;;33.30;37.40;;;;;;5049364;28;20047;-80
2021/05/31 12:46:44;;;;;;;6.55;2.67;;;33.10;37.50;;;;;;5031503;28;20033;-80
2021/05/31 12:49:14;;;;;;;3.22;2.55;;;32.80;37.40;;;;;;5029168;28;20111;-78
2021/05/31 12:51:53;;;;;;;6.97;2.15;;;32.60;37.50;;;;;;5031975;28;20053;-79
2021/05/31 12:54:20;;;;;;;3.38;2.13;;;32.70;37.50;;;;;;5049478;28;20025;-77
2021/05/31 12:56:46;;;;;;;4.55;2.33;;;32.80;37.40;;;;;;5028106;28;20057;-79
2021/05/31 12:59:12;;;;;;;4.90;2.60;;;32.70;37.30;;;;;;5020852;28;20503;-78
2021/05/31 13:01:41;;;;;;;6.65;2.20;;;32.60;37.30;;;;;;5029137;28;20033;-78
2021/05/31 13:04:07;;;;;;;3.97;2.33;;;32.40;37.10;;;;;;5012145;28;20101;-79
2021/05/31 13:06:41;;;;;;;3.25;2.00;;;32.20;37.10;;;;;;5027833;28;20033;-78
2021/05/31 13:09:22;;;;;;;6.15;2.08;;;32.20;37.20;;;;;;5027531;28;20079;-76
2021/05/31 13:11:49;;;;;;;3.60;2.00;;;31.50;36.70;;;;;;5028873;28;20079;-78